Time;durP1;ratioP1;P1;durP2;ratioP2;P2;SDS_P1;SDS_P2;PMS_P1;PMS_P2;Temp;Humidity;BMP_temperature;BMP_pressure;BME280_temperature;BME280_humidity;BME280_pressure;Samples;Min_cycle;Max_cycle;Signal;HPM_P1;HPM_P2
2021/07/19 00:00:51;;;;;;;13.75;11.38;;;;;;;18.78;97.14;97945.88;1707169;83;20890;-73
2021/07/19 00:03:17;;;;;;;18.60;13.00;;;;;;;18.78;96.54;97939.59;1706789;83;20850;-74
2021/07/19 00:05:43;;;;;;;12.98;11.55;;;;;;;18.72;97.55;97945.06;1707128;83;20957;-73
2021/07/19 00:08:09;;;;;;;14.58;12.37;;;;;;;18.74;96.83;97948.27;1706969;84;21968;-74
2021/07/19 00:10:35;;;;;;;12.40;10.13;;;;;;;18.75;96.94;97947.12;1706993;84;20954;-74
2021/07/19 00:13:01;;;;;;;14.28;11.00;;;;;;;18.75;96.66;97944.38;1707028;83;20958;-74
2021/07/19 00:15:27;;;;;;;14.10;10.48;;;;;;;18.74;96.41;97949.64;1703395;82;20835;-74
2021/07/19 00:17:53;;;;;;;13.93;10.88;;;;;;;18.73;96.72;97941.98;1699012;84;20930;-74
2021/07/19 00:20:20;;;;;;;13.35;10.55;;;;;;;18.75;96.66;97945.19;1699018;83;21029;-74
2021/07/19 00:22:46;;;;;;;13.10;11.30;;;;;;;18.68;97.36;97939.99;1698983;84;21030;-74
2021/07/19 00:25:15;;;;;;;15.40;10.65;;;;;;;18.70;97.73;97939.08;1699243;83;20835;-74
2021/07/19 00:27:42;;;;;;;12.53;11.10;;;;;;;18.72;96.89;97939.00;1699050;84;20955;-73
2021/07/19 00:30:10;;;;;;;12.60;10.58;;;;;;;18.70;96.84;97942.63;1699227;83;20982;-73
2021/07/19 00:32:38;;;;;;;17.07;12.40;;;;;;;18.68;96.86;97940.80;1699288;83;21208;-74
2021/07/19 00:35:06;;;;;;;14.07;11.63;;;;;;;18.72;96.84;97945.86;1699340;82;21375;-73
2021/07/19 00:37:32;;;;;;;15.53;10.67;;;;;;;18.73;97.05;97945.30;1699188;84;21481;-74
2021/07/19 00:39:58;;;;;;;18.25;11.63;;;;;;;18.72;96.95;97948.61;1699161;84;21027;-74
2021/07/19 00:42:24;;;;;;;13.30;11.00;;;;;;;18.75;96.80;97949.88;1699094;84;20927;-74
2021/07/19 00:44:50;;;;;;;12.30;11.10;;;;;;;18.71;97.32;97953.84;1699293;84;21932;-73
2021/07/19 00:47:16;;;;;;;15.95;12.30;;;;;;;18.75;97.05;97950.67;1699125;84;21008;-74
2021/07/19 00:49:43;;;;;;;13.08;9.90;;;;;;;18.75;96.94;97949.88;1698964;83;20918;-74
2021/07/19 00:52:11;;;;;;;14.20;11.20;;;;;;;18.73;97.17;97952.16;1699067;84;21006;-74
2021/07/19 00:54:38;;;;;;;13.58;11.60;;;;;;;18.74;97.03;97943.58;1698926;84;21014;-74
2021/07/19 00:57:04;;;;;;;25.17;12.25;;;;;;;18.81;97.30;97947.17;1699090;84;21306;-74
2021/07/19 00:59:30;;;;;;;16.67;11.35;;;;;;;18.81;97.61;97957.58;1698895;84;20959;-75
2021/07/19 01:01:56;;;;;;;13.20;11.55;;;;;;;18.83;97.59;97957.23;1679273;84;21037;-74
2021/07/19 01:04:22;;;;;;;12.03;10.75;;;;;;;18.83;97.16;97960.78;1699225;84;20890;-74
2021/07/19 01:06:48;;;;;;;16.27;11.75;;;;;;;18.83;96.99;97953.92;1699382;84;21028;-74
2021/07/19 01:09:14;;;;;;;11.68;10.25;;;;;;;18.81;96.63;97952.09;1699152;84;21181;-74
2021/07/19 01:11:40;;;;;;;14.58;10.70;;;;;;;18.77;96.97;97959.37;1699157;82;20827;-74
2021/07/19 01:14:06;;;;;;;15.13;11.08;;;;;;;18.76;96.61;97955.59;1699231;83;20913;-74
2021/07/19 01:16:32;;;;;;;16.55;11.68;;;;;;;18.75;97.09;97958.91;1701435;82;20985;-74
2021/07/19 01:18:58;;;;;;;13.53;11.38;;;;;;;18.80;97.62;97965.58;1688688;83;20970;-73
2021/07/19 01:21:44;;;;;;;17.37;12.28;;;;;;;18.78;96.90;97956.86;1717016;83;22092;-74
2021/07/19 01:24:27;;;;;;;16.48;10.85;;;;;;;18.85;97.07;97958.50;1716283;83;20958;-72
2021/07/19 01:27:28;;;;;;;14.60;11.20;;;;;;;18.93;97.23;97960.14;1716882;83;20977;-73
2021/07/19 01:29:54;;;;;;;13.75;11.48;;;;;;;18.88;97.16;97955.10;1707593;83;20966;-73
2021/07/19 01:32:20;;;;;;;16.40;12.00;;;;;;;18.87;96.85;97960.33;1716451;83;20914;-73
2021/07/19 01:34:46;;;;;;;13.05;10.32;;;;;;;18.84;97.26;97965.70;1711988;83;21311;-73
2021/07/19 01:37:12;;;;;;;13.50;12.05;;;;;;;18.84;96.94;97960.21;1707060;84;20942;-73
2021/07/19 01:39:38;;;;;;;13.32;11.55;;;;;;;18.79;96.57;97959.83;1706853;82;20921;-73
2021/07/19 01:42:05;;;;;;;15.72;12.40;;;;;;;18.82;96.74;97960.55;1707205;83;20970;-73
2021/07/19 01:44:31;;;;;;;14.03;12.03;;;;;;;18.86;96.86;97960.10;1706911;83;21402;-73
2021/07/19 01:46:57;;;;;;;16.50;12.10;;;;;;;18.85;96.80;97954.38;1686789;84;21165;-74
2021/07/19 01:49:23;;;;;;;17.52;11.35;;;;;;;18.87;96.72;97958.96;1706863;83;21033;-73
2021/07/19 01:51:50;;;;;;;16.67;11.12;;;;;;;18.92;96.65;97958.54;1686919;84;20994;-73
2021/07/19 01:54:16;;;;;;;16.95;12.18;;;;;;;18.92;96.43;97956.59;1707013;83;20966;-74
2021/07/19 01:56:43;;;;;;;12.05;10.38;;;;;;;18.95;96.39;97953.73;1707066;84;20897;-74
2021/07/19 01:59:09;;;;;;;16.25;11.38;;;;;;;18.94;96.13;97954.31;1706922;84;21205;-73
2021/07/19 02:01:35;;;;;;;13.32;11.60;;;;;;;18.91;96.14;97950.87;1707060;83;20897;-74
2021/07/19 02:04:01;;;;;;;15.25;12.80;;;;;;;18.93;96.15;97956.03;1686898;84;20843;-73
2021/07/19 02:06:27;;;;;;;13.95;11.15;;;;;;;18.94;95.99;97952.94;1686568;84;20989;-73
2021/07/19 02:08:55;;;;;;;19.00;12.75;;;;;;;18.87;95.80;97962.28;1686794;84;20902;-73
2021/07/19 02:11:27;;;;;;;14.55;12.55;;;;;;;18.75;95.77;97959.48;1686840;84;22077;-73
2021/07/19 02:13:53;;;;;;;18.90;12.03;;;;;;;18.77;96.02;97962.69;1706927;84;21379;-73
2021/07/19 02:16:20;;;;;;;18.75;12.58;;;;;;;18.78;96.07;97959.59;1686237;83;21037;-73
2021/07/19 02:18:46;;;;;;;15.88;12.10;;;;;;;18.81;95.94;97954.03;1686617;84;21030;-73
2021/07/19 02:21:12;;;;;;;18.60;12.40;;;;;;;18.79;96.14;97959.83;1707118;82;21567;-73
2021/07/19 02:23:38;;;;;;;15.75;11.73;;;;;;;18.76;95.79;97960.51;1707167;83;21204;-73
2021/07/19 02:26:04;;;;;;;14.07;12.63;;;;;;;18.77;95.87;97965.42;1663856;84;21384;-74
2021/07/19 02:28:34;;;;;;;17.27;12.58;;;;;;;18.76;96.21;97965.20;1706827;82;20979;-74
2021/07/19 02:31:03;;;;;;;19.52;13.78;;;;;;;18.76;96.43;97966.56;1706749;84;21435;-74
2021/07/19 02:33:29;;;;;;;13.72;12.25;;;;;;;18.67;96.07;97961.72;1706989;84;21018;-73
2021/07/19 02:35:54;;;;;;;16.30;13.62;;;;;;;18.60;96.66;97963.58;1707208;84;20903;-73
2021/07/19 02:38:21;;;;;;;19.10;13.10;;;;;;;18.59;96.35;97962.78;1706856;84;20926;-74
2021/07/19 02:40:47;;;;;;;18.15;12.45;;;;;;;18.56;96.92;97966.77;1707029;83;21457;-73
2021/07/19 02:43:13;;;;;;;17.48;14.68;;;;;;;18.56;96.71;97962.08;1706834;83;21022;-73
2021/07/19 02:45:42;;;;;;;20.40;16.73;;;;;;;18.55;96.57;97963.22;1687154;84;20965;-73
2021/07/19 02:48:10;;;;;;;19.98;14.13;;;;;;;18.52;96.69;97962.50;1686698;84;21131;-73
2021/07/19 02:50:36;;;;;;;16.40;13.03;;;;;;;18.52;97.44;97964.44;1707120;82;20973;-74
2021/07/19 02:53:11;;;;;;;16.65;14.18;;;;;;;18.53;97.25;97968.22;1706963;83;20930;-74
2021/07/19 02:55:38;;;;;;;19.42;15.85;;;;;;;18.47;97.17;97967.39;1707066;83;21006;-73
2021/07/19 02:58:05;;;;;;;21.73;15.65;;;;;;;18.51;97.30;97969.69;1706909;82;21351;-72
2021/07/19 03:00:32;;;;;;;21.55;14.85;;;;;;;18.45;97.70;97973.19;1706995;83;21172;-72
2021/07/19 03:03:01;;;;;;;17.25;14.23;;;;;;;18.46;97.97;97972.65;1706779;83;21424;-72
2021/07/19 03:05:35;;;;;;;20.52;13.98;;;;;;;18.49;97.50;97975.52;1706682;82;21477;-73
2021/07/19 03:08:00;;;;;;;17.37;14.53;;;;;;;18.52;97.52;97972.67;1706954;83;20950;-73
2021/07/19 03:11:10;;;;;;;21.45;15.05;;;;;;;18.54;97.09;97973.97;1706903;83;20891;-73
2021/07/19 03:13:41;;;;;;;17.48;14.70;;;;;;;18.48;96.89;97974.48;1703584;83;20918;-74
2021/07/19 03:16:07;;;;;;;19.77;14.63;;;;;;;18.41;97.75;97976.38;1687180;83;21021;-74
2021/07/19 03:18:39;;;;;;;22.73;15.20;;;;;;;18.37;97.48;97981.47;1706826;84;20902;-73
2021/07/19 03:21:05;;;;;;;18.67;15.40;;;;;;;18.37;97.87;97981.47;1707132;83;20922;-73
2021/07/19 03:23:31;;;;;;;15.83;13.60;;;;;;;18.38;97.79;97988.02;1692106;83;20962;-73
2021/07/19 03:25:59;;;;;;;17.57;13.80;;;;;;;18.43;97.84;97979.58;1680302;85;21033;-74
2021/07/19 03:28:25;;;;;;;18.43;14.23;;;;;;;18.45;97.45;97984.16;1680276;85;20922;-73
2021/07/19 03:30:51;;;;;;;19.45;14.00;;;;;;;18.44;97.40;97989.98;1687257;84;20945;-74
2021/07/19 03:33:17;;;;;;;20.35;12.10;;;;;;;18.42;97.62;97987.58;1706838;84;20933;-73
2021/07/19 03:35:43;;;;;;;14.47;12.53;;;;;;;18.43;97.50;97984.27;1707047;84;20866;-73
2021/07/19 03:38:09;;;;;;;17.20;13.05;;;;;;;18.42;97.50;97988.95;1706929;84;21988;-73
2021/07/19 03:40:35;;;;;;;15.95;12.43;;;;;;;18.46;97.86;97987.73;1706772;83;20917;-73
2021/07/19 03:43:01;;;;;;;18.12;13.65;;;;;;;18.49;97.84;97985.12;1706806;82;20950;-74
2021/07/19 03:45:28;;;;;;;16.30;12.58;;;;;;;18.50;97.63;97979.06;1706856;83;20993;-73
2021/07/19 03:47:53;;;;;;;19.00;11.97;;;;;;;18.54;97.46;97986.31;1706792;84;21025;-73
2021/07/19 03:50:19;;;;;;;16.15;11.78;;;;;;;18.56;97.10;97975.80;1706789;84;21173;-74
2021/07/19 03:52:46;;;;;;;14.45;12.25;;;;;;;18.52;97.57;97983.64;1706887;83;20938;-73
2021/07/19 03:55:14;;;;;;;16.85;12.75;;;;;;;18.50;97.26;97987.30;1706827;83;20969;-73
2021/07/19 03:57:41;;;;;;;18.15;11.48;;;;;;;18.53;97.12;97976.45;1706980;83;20973;-73
2021/07/19 04:00:10;;;;;;;13.75;10.08;;;;;;;18.51;96.81;97983.41;1706822;84;21013;-74
2021/07/19 04:02:37;;;;;;;16.50;11.08;;;;;;;18.48;96.58;97979.97;1707059;83;21288;-74
2021/07/19 04:05:07;;;;;;;13.90;9.48;;;;;;;18.42;96.87;97986.78;1706794;83;21331;-73
2021/07/19 04:07:41;;;;;;;17.30;9.85;;;;;;;18.44;96.79;97981.19;1706617;83;21009;-73
2021/07/19 04:10:10;;;;;;;12.15;8.93;;;;;;;18.46;96.78;97980.87;1686999;84;21009;-73
2021/07/19 04:12:36;;;;;;;11.63;8.65;;;;;;;18.48;96.68;97979.97;1706986;82;21474;-73
2021/07/19 04:15:04;;;;;;;15.30;9.73;;;;;;;18.52;96.63;97980.33;1706800;83;21322;-73
2021/07/19 04:17:31;;;;;;;13.90;9.88;;;;;;;18.56;96.50;97985.41;1700826;83;21439;-73
2021/07/19 04:19:58;;;;;;;13.68;9.60;;;;;;;18.56;96.26;97982.66;1699132;83;21097;-73
2021/07/19 04:22:24;;;;;;;14.13;10.68;;;;;;;18.60;96.21;97984.16;1698977;84;21360;-73
2021/07/19 04:24:50;;;;;;;14.30;11.12;;;;;;;18.64;96.15;97985.69;1698999;84;21022;-74
2021/07/19 04:27:16;;;;;;;16.67;11.45;;;;;;;18.68;96.08;97979.22;1699159;84;21200;-74
2021/07/19 04:29:49;;;;;;;13.38;10.58;;;;;;;18.70;95.85;97981.05;1699055;84;20906;-73
2021/07/19 04:32:14;;;;;;;14.70;11.00;;;;;;;18.76;95.94;97976.17;1699148;84;20978;-72
2021/07/19 04:34:41;;;;;;;19.32;11.85;;;;;;;18.77;95.65;97979.95;1678987;84;20902;-74
2021/07/19 04:37:08;;;;;;;15.58;11.93;;;;;;;18.77;95.76;97974.47;1699184;84;21045;-74
2021/07/19 04:39:36;;;;;;;14.85;10.88;;;;;;;18.84;95.67;97981.60;1698987;84;22055;-72
2021/07/19 04:42:04;;;;;;;16.82;9.30;;;;;;;18.88;95.55;97981.19;1696565;84;21347;-75
2021/07/19 04:44:30;;;;;;;14.68;10.78;;;;;;;18.88;95.32;97978.44;1679507;84;21014;-73
2021/07/19 04:46:56;;;;;;;18.32;13.90;;;;;;;18.96;95.46;97982.23;1699078;83;21427;-75
2021/07/19 04:49:23;;;;;;;18.80;15.58;;;;;;;19.05;95.39;97989.02;1699268;83;20978;-74
2021/07/19 04:51:49;;;;;;;18.82;13.30;;;;;;;19.11;95.31;97988.48;1700196;83;21289;-73
2021/07/19 04:54:27;;;;;;;18.45;14.60;;;;;;;19.13;95.05;97992.27;1699013;84;20939;-72
2021/07/19 04:57:00;;;;;;;18.30;12.93;;;;;;;19.14;94.99;97994.70;1699387;83;21395;-71
2021/07/19 04:59:30;;;;;;;21.42;10.53;;;;;;;19.19;95.01;97997.00;1679112;84;20993;-74
2021/07/19 05:01:56;;;;;;;16.57;10.68;;;;;;;19.18;94.85;97996.19;1699745;83;21014;-75
2021/07/19 05:04:25;;;;;;;16.67;10.43;;;;;;;19.20;94.73;97992.53;1699179;83;21328;-74
2021/07/19 05:06:50;;;;;;;10.53;8.85;;;;;;;19.14;94.40;97989.75;1699346;84;20959;-75
2021/07/19 05:09:16;;;;;;;15.70;11.05;;;;;;;19.07;94.38;97995.80;1699389;82;20913;-75
2021/07/19 05:11:42;;;;;;;14.28;10.38;;;;;;;19.01;94.57;97994.97;1699162;84;21608;-75
2021/07/19 05:14:08;;;;;;;16.35;10.32;;;;;;;19.11;94.88;97989.86;1699202;83;21136;-75
2021/07/19 05:16:34;;;;;;;15.65;9.00;;;;;;;19.22;94.89;97986.13;1700097;83;22013;-75
2021/07/19 05:19:02;;;;;;;14.35;8.95;;;;;;;19.34;94.74;97996.37;1701939;84;21408;-75
2021/07/19 05:21:28;;;;;;;13.18;10.28;;;;;;;19.36;94.20;97990.77;1701914;84;20978;-75
2021/07/19 05:23:53;;;;;;;15.10;11.18;;;;;;;19.41;94.37;97995.27;1683909;84;20993;-74
2021/07/19 05:26:19;;;;;;;15.88;9.75;;;;;;;19.41;94.03;97996.06;1701974;84;20962;-75
2021/07/19 05:28:46;;;;;;;16.17;10.60;;;;;;;19.44;93.92;97992.63;1707275;83;21125;-73
2021/07/19 05:31:11;;;;;;;28.60;12.68;;;;;;;19.49;94.00;97991.63;1707065;83;20914;-75
2021/07/19 05:33:37;;;;;;;18.32;8.80;;;;;;;19.49;92.95;97989.45;1707164;83;20846;-75
2021/07/19 05:36:04;;;;;;;15.63;7.78;;;;;;;19.39;91.48;97993.41;1706827;84;20933;-73
2021/07/19 05:38:30;;;;;;;13.50;8.43;;;;;;;19.33;89.67;97991.45;1706707;83;20954;-73
2021/07/19 05:40:56;;;;;;;9.45;6.50;;;;;;;19.28;89.84;97996.34;1706701;83;21284;-75
2021/07/19 05:43:22;;;;;;;12.13;6.83;;;;;;;19.14;89.19;97992.50;1706789;84;20874;-73
2021/07/19 05:45:48;;;;;;;13.08;6.47;;;;;;;19.16;90.01;98002.59;1706740;84;20878;-75
2021/07/19 05:48:14;;;;;;;11.53;5.80;;;;;;;19.06;89.20;98007.13;1706854;83;20954;-73
2021/07/19 05:50:40;;;;;;;13.45;7.28;;;;;;;19.01;89.11;98005.38;1707017;82;21009;-74
2021/07/19 05:53:06;;;;;;;9.98;6.17;;;;;;;18.97;87.94;98004.99;1706974;83;21093;-73
2021/07/19 05:55:34;;;;;;;11.68;6.03;;;;;;;19.02;89.11;98000.69;1706948;84;20878;-75
2021/07/19 05:58:00;;;;;;;12.70;6.50;;;;;;;19.14;89.60;98006.23;1707002;84;20965;-75
2021/07/19 06:00:26;;;;;;;15.28;5.87;;;;;;;19.20;89.82;98006.84;1706873;83;21461;-75
2021/07/19 06:02:52;;;;;;;17.48;7.55;;;;;;;19.19;89.65;98013.47;1707119;83;21374;-74
2021/07/19 06:05:18;;;;;;;13.08;7.17;;;;;;;19.21;89.83;98018.86;1707048;82;21299;-75
2021/07/19 06:07:45;;;;;;;9.95;6.80;;;;;;;19.28;90.04;98019.69;1706813;83;21504;-75
2021/07/19 06:10:12;;;;;;;15.50;6.62;;;;;;;19.32;89.81;98022.82;1706898;83;20923;-73
2021/07/19 06:12:40;;;;;;;13.20;8.05;;;;;;;19.41;89.71;98020.00;1706759;84;21038;-75
2021/07/19 06:15:07;;;;;;;85.27;14.73;;;;;;;19.41;88.69;98023.55;1707187;83;21335;-75
2021/07/19 06:17:35;;;;;;;27.22;9.55;;;;;;;19.48;88.92;98009.81;1706973;83;21194;-73
2021/07/19 06:20:01;;;;;;;34.60;9.30;;;;;;;19.60;88.47;98009.89;1707145;84;20942;-75
2021/07/19 06:22:27;;;;;;;16.73;8.20;;;;;;;19.69;86.88;98014.16;1706983;82;21010;-73
2021/07/19 06:24:54;;;;;;;11.50;6.90;;;;;;;19.80;88.18;98017.27;1707069;83;20926;-73
2021/07/19 06:27:20;;;;;;;29.45;8.55;;;;;;;19.83;87.87;98024.06;1700162;83;21009;-74
2021/07/19 06:29:46;;;;;;;28.55;8.45;;;;;;;19.75;86.03;98026.33;1698989;84;21156;-73
2021/07/19 06:32:12;;;;;;;19.00;7.47;;;;;;;19.87;86.98;98034.02;1699230;83;20929;-75
2021/07/19 06:34:38;;;;;;;15.03;6.15;;;;;;;19.99;87.07;98038.16;1699301;84;20895;-73
2021/07/19 06:37:04;;;;;;;12.30;6.28;;;;;;;20.02;86.85;98041.39;1699362;84;20858;-75
2021/07/19 06:39:30;;;;;;;15.15;6.85;;;;;;;19.92;85.36;98041.27;1699234;83;20964;-73
2021/07/19 06:41:56;;;;;;;20.72;8.13;;;;;;;19.95;86.08;98038.62;1699205;84;21213;-74
2021/07/19 06:44:22;;;;;;;15.55;7.37;;;;;;;20.04;86.49;98041.27;1699205;83;20957;-74
2021/07/19 06:46:49;;;;;;;9.35;5.90;;;;;;;20.08;85.44;98050.47;1699048;84;20878;-75
2021/07/19 06:49:15;;;;;;;21.17;6.50;;;;;;;20.16;84.85;98045.41;1699187;84;21351;-73
2021/07/19 06:51:41;;;;;;;12.70;5.92;;;;;;;20.50;85.57;98049.70;1699015;83;20934;-75
2021/07/19 06:54:07;;;;;;;11.33;5.72;;;;;;;21.00;85.65;98050.47;1699332;84;21139;-73
2021/07/19 06:56:33;;;;;;;10.13;5.33;;;;;;;21.26;83.63;98054.20;1698860;84;21635;-75
2021/07/19 06:58:59;;;;;;;9.95;6.70;;;;;;;21.00;79.86;98058.16;1699618;84;20843;-73
2021/07/19 07:01:25;;;;;;;10.70;6.33;;;;;;;21.04;81.79;98058.29;1699038;83;20894;-73
2021/07/19 07:03:51;;;;;;;10.98;5.58;;;;;;;21.02;80.50;98057.27;1699247;83;20855;-73
2021/07/19 07:06:17;;;;;;;8.03;5.47;;;;;;;21.09;80.70;98054.70;1699016;83;21306;-73
2021/07/19 07:08:43;;;;;;;9.88;5.72;;;;;;;21.24;80.75;98056.51;1699219;84;20898;-74
2021/07/19 07:11:09;;;;;;;8.55;5.62;;;;;;;21.28;79.08;98054.13;1699035;84;20855;-73
2021/07/19 07:13:34;;;;;;;12.47;6.12;;;;;;;21.48;78.85;98055.09;1698968;84;20903;-75
2021/07/19 07:16:00;;;;;;;9.65;5.87;;;;;;;21.65;78.14;98059.50;1699190;84;20930;-74
2021/07/19 07:18:26;;;;;;;8.28;5.42;;;;;;;21.73;77.80;98053.61;1698839;83;21000;-74
2021/07/19 07:20:52;;;;;;;13.20;6.00;;;;;;;21.80;76.55;98057.37;1699070;84;20890;-75
2021/07/19 07:23:18;;;;;;;13.55;6.62;;;;;;;22.08;75.50;98054.59;1699057;83;20941;-73
2021/07/19 07:25:46;;;;;;;15.25;6.87;;;;;;;22.17;76.83;98046.94;1699121;84;20942;-73
2021/07/19 07:28:12;;;;;;;16.00;6.20;;;;;;;22.26;76.67;98046.77;1699488;83;21332;-73
2021/07/19 07:30:38;;;;;;;10.00;6.00;;;;;;;22.02;74.02;98053.21;1699334;83;21149;-73
2021/07/19 07:33:04;;;;;;;14.80;5.78;;;;;;;21.84;74.86;98056.08;1699817;84;20951;-73
2021/07/19 07:35:30;;;;;;;16.40;6.53;;;;;;;22.00;76.29;98051.97;1699350;82;20938;-75
2021/07/19 07:37:56;;;;;;;14.83;6.62;;;;;;;22.09;77.06;98054.02;1699123;84;20890;-75
2021/07/19 07:40:22;;;;;;;12.78;7.12;;;;;;;22.08;76.89;98047.70;1699217;83;20855;-73
2021/07/19 07:42:48;;;;;;;11.97;6.62;;;;;;;21.78;76.18;98051.96;1698971;83;21313;-75
2021/07/19 07:45:14;;;;;;;11.38;6.80;;;;;;;21.49;75.43;98055.31;1698854;84;20922;-75
2021/07/19 07:47:41;;;;;;;13.75;6.53;;;;;;;21.50;76.84;98047.84;1699148;83;20957;-73
2021/07/19 07:50:09;;;;;;;11.08;6.80;;;;;;;21.55;77.04;98053.12;1699414;83;20927;-73
2021/07/19 07:52:35;;;;;;;11.63;6.62;;;;;;;21.62;77.14;98054.12;1699013;83;21426;-75
2021/07/19 07:55:01;;;;;;;13.05;6.50;;;;;;;21.70;76.86;98050.95;1699265;84;21250;-75
2021/07/19 07:57:26;;;;;;;13.15;6.33;;;;;;;21.76;75.97;98049.56;1699300;83;21006;-75
2021/07/19 07:59:52;;;;;;;11.83;6.37;;;;;;;21.84;75.83;98040.33;1699191;84;20934;-73
2021/07/19 08:02:18;;;;;;;7.92;5.65;;;;;;;22.04;74.05;98038.48;1697932;84;20930;-73
2021/07/19 08:04:45;;;;;;;10.85;5.95;;;;;;;22.45;72.93;98047.43;1699242;84;20875;-74
2021/07/19 08:07:11;;;;;;;14.87;6.67;;;;;;;23.01;72.59;98041.10;1699100;83;21379;-73
2021/07/19 08:09:37;;;;;;;12.82;6.28;;;;;;;23.33;72.65;98043.18;1699221;83;21439;-73
2021/07/19 08:12:03;;;;;;;11.60;6.22;;;;;;;23.38;69.75;98042.66;1699590;83;20971;-74
2021/07/19 08:14:30;;;;;;;10.68;6.47;;;;;;;23.65;68.97;98038.89;1699271;83;20971;-73
2021/07/19 08:16:56;;;;;;;12.05;5.85;;;;;;;24.44;67.74;98042.52;1699166;83;20845;-73
2021/07/19 08:19:24;;;;;;;11.30;6.05;;;;;;;25.24;63.60;98033.66;1711904;82;21150;-73
2021/07/19 08:21:52;;;;;;;10.23;5.87;;;;;;;26.03;63.70;98035.39;1707894;82;20974;-74
2021/07/19 08:24:17;;;;;;;12.25;6.80;;;;;;;25.14;62.10;98040.66;1707102;83;21041;-73
2021/07/19 08:26:45;;;;;;;10.93;6.35;;;;;;;24.38;64.22;98038.48;1706883;84;20858;-73
2021/07/19 08:29:11;;;;;;;18.77;7.47;;;;;;;23.97;66.03;98038.12;1707377;82;20966;-75
2021/07/19 08:31:40;;;;;;;9.30;6.45;;;;;;;23.74;65.46;98035.31;1706739;83;21886;-74
2021/07/19 08:34:05;;;;;;;15.03;6.73;;;;;;;23.27;66.86;98030.80;1707072;84;21348;-74
2021/07/19 08:36:31;;;;;;;9.98;6.60;;;;;;;23.56;68.20;98032.75;1706771;83;20998;-75
2021/07/19 08:38:57;;;;;;;8.48;5.75;;;;;;;24.19;65.29;98035.97;1707120;83;20886;-74
2021/07/19 08:41:23;;;;;;;14.93;7.42;;;;;;;25.15;61.76;98034.52;1706883;83;20871;-74
2021/07/19 08:43:49;;;;;;;10.80;5.40;;;;;;;26.01;57.76;98027.45;1707198;83;21303;-75
2021/07/19 08:46:15;;;;;;;10.53;6.47;;;;;;;25.95;56.51;98031.73;1706735;84;20886;-74
2021/07/19 08:48:41;;;;;;;8.98;6.83;;;;;;;25.64;58.37;98035.75;1707061;83;21021;-74
2021/07/19 08:51:07;;;;;;;7.60;6.62;;;;;;;25.54;59.49;98036.39;1706935;83;20949;-74
2021/07/19 08:53:34;;;;;;;10.38;5.90;;;;;;;26.07;59.51;98031.48;1706714;83;21052;-75
2021/07/19 08:56:00;;;;;;;8.13;6.33;;;;;;;26.89;56.43;98027.98;1706874;83;21115;-75
2021/07/19 08:58:26;;;;;;;13.93;6.65;;;;;;;27.10;55.78;98022.40;1706700;82;20910;-76
2021/07/19 09:00:53;;;;;;;7.12;5.37;;;;;;;26.76;55.36;98025.33;1686829;84;20929;-75
2021/07/19 09:03:19;;;;;;;8.25;5.50;;;;;;;25.97;54.94;98022.43;1706806;82;21006;-76
2021/07/19 09:05:47;;;;;;;11.57;6.08;;;;;;;25.73;57.09;98022.41;1706902;82;20970;-75
2021/07/19 09:08:12;;;;;;;10.95;5.97;;;;;;;25.18;58.34;98027.63;1706934;84;21111;-74
2021/07/19 09:10:38;;;;;;;9.20;6.08;;;;;;;24.96;60.11;98018.21;1706914;84;20949;-75
2021/07/19 09:13:07;;;;;;;11.00;5.90;;;;;;;24.93;60.94;98012.02;1706871;83;21556;-74
2021/07/19 09:15:36;;;;;;;10.30;6.50;;;;;;;24.74;61.33;98006.00;1707065;83;20951;-75
2021/07/19 09:18:05;;;;;;;8.98;6.28;;;;;;;24.86;61.45;98008.34;1704433;83;20959;-75
2021/07/19 09:20:37;;;;;;;12.78;6.65;;;;;;;25.03;61.57;98006.43;1699021;84;21061;-73
2021/07/19 09:23:04;;;;;;;11.75;5.72;;;;;;;25.25;60.73;98005.55;1698951;84;20938;-75
2021/07/19 09:25:30;;;;;;;14.33;7.05;;;;;;;25.74;59.38;98005.96;1699114;83;21202;-75
2021/07/19 09:28:05;;;;;;;8.80;5.90;;;;;;;25.56;55.45;98007.13;1699226;84;20863;-73
2021/07/19 09:30:39;;;;;;;12.98;7.55;;;;;;;25.54;56.96;98012.81;1698534;84;21307;-74
2021/07/19 09:33:11;;;;;;;9.85;7.45;;;;;;;25.56;55.65;98012.67;1679767;84;22061;-73
2021/07/19 09:35:46;;;;;;;16.73;9.15;;;;;;;26.22;56.43;98007.98;1699265;84;21351;-75
2021/07/19 09:38:13;;;;;;;12.73;7.70;;;;;;;26.57;52.55;98004.14;1698982;84;21001;-76
2021/07/19 09:40:41;;;;;;;13.38;7.25;;;;;;;27.95;50.69;98005.25;1699321;83;20943;-74
2021/07/19 09:43:24;;;;;;;10.78;6.90;;;;;;;28.51;47.18;98000.92;1699100;84;21297;-75
2021/07/19 09:46:05;;;;;;;15.98;8.55;;;;;;;28.17;48.45;97997.10;1699229;84;21951;-74
2021/07/19 09:48:31;;;;;;;11.65;8.08;;;;;;;29.49;48.12;97999.14;1698995;84;20962;-74
2021/07/19 09:50:58;;;;;;;14.70;8.28;;;;;;;30.54;43.30;97986.88;1699312;84;20997;-74
2021/07/19 09:53:43;;;;;;;10.60;8.10;;;;;;;31.92;44.77;97989.92;1699110;83;20959;-75
2021/07/19 09:56:13;;;;;;;11.43;8.08;;;;;;;32.62;41.91;97984.41;1699156;84;21006;-74
2021/07/19 09:58:41;;;;;;;19.27;8.13;;;;;;;31.90;41.34;97987.55;1698667;84;21190;-74
2021/07/19 10:01:07;;;;;;;20.75;10.15;;;;;;;31.09;40.48;97986.53;1699044;84;21054;-73
2021/07/19 10:03:33;;;;;;;16.45;10.48;;;;;;;31.95;42.17;97980.66;1699057;84;20831;-75
2021/07/19 10:06:06;;;;;;;16.77;10.40;;;;;;;30.85;44.16;97988.39;1699388;84;20827;-74
2021/07/19 10:08:32;;;;;;;21.20;9.73;;;;;;;29.75;45.83;97990.03;1698969;83;20968;-75
2021/07/19 10:10:58;;;;;;;12.75;9.18;;;;;;;28.37;46.64;97987.77;1699308;84;21276;-75
2021/07/19 10:13:32;;;;;;;16.70;9.25;;;;;;;27.62;48.42;97982.67;1699012;84;21660;-76
2021/07/19 10:16:02;;;;;;;14.83;8.98;;;;;;;27.06;49.73;97974.30;1699306;83;21026;-75
2021/07/19 10:18:30;;;;;;;13.50;9.88;;;;;;;26.85;50.56;97972.98;1698516;83;20970;-74
2021/07/19 10:20:56;;;;;;;17.77;8.78;;;;;;;26.55;51.67;97965.43;1699460;84;20959;-74
2021/07/19 10:23:22;;;;;;;11.53;8.80;;;;;;;26.35;51.86;97968.44;1699195;84;22038;-73
2021/07/19 10:25:47;;;;;;;14.60;8.83;;;;;;;27.60;48.21;97962.77;1699096;83;20859;-73
2021/07/19 10:28:14;;;;;;;13.00;9.10;;;;;;;28.89;43.91;97959.69;1699188;84;20843;-77
2021/07/19 10:30:41;;;;;;;11.30;7.62;;;;;;;30.57;43.74;97956.69;1699155;84;21414;-75
2021/07/19 10:33:07;;;;;;;16.97;9.23;;;;;;;31.03;41.23;97959.64;1699134;83;21026;-74
2021/07/19 10:35:34;;;;;;;18.23;7.72;;;;;;;32.44;39.48;97955.89;1699236;83;21239;-87
2021/07/19 10:38:09;;;;;;;12.95;7.72;;;;;;;33.54;37.91;97950.98;1699080;84;21022;-75
2021/07/19 10:40:38;;;;;;;12.28;9.23;;;;;;;34.51;37.04;97946.70;1699268;83;21026;-79
2021/07/19 10:43:15;;;;;;;12.10;8.58;;;;;;;34.54;34.38;97945.05;1687617;82;20946;-80
2021/07/19 10:45:53;;;;;;;10.93;8.10;;;;;;;35.28;33.54;97945.80;1683861;85;21052;-80
2021/07/19 10:48:29;;;;;;;11.83;8.38;;;;;;;32.68;35.40;97951.06;1681980;85;21394;-78
2021/07/19 10:50:57;;;;;;;12.40;8.33;;;;;;;31.27;37.37;97945.77;1684417;83;21048;-76
2021/07/19 10:53:26;;;;;;;11.95;7.33;;;;;;;32.54;35.32;97941.67;1684357;83;21020;-74
2021/07/19 10:56:05;;;;;;;9.88;7.53;;;;;;;31.92;35.02;97941.69;1665206;84;21052;-75
2021/07/19 10:58:44;;;;;;;9.73;7.50;;;;;;;32.04;36.04;97937.49;1688685;84;21469;-73
2021/07/19 11:01:28;;;;;;;12.60;7.45;;;;;;;32.87;35.49;97936.30;1685425;83;21075;-75
2021/07/19 11:03:56;;;;;;;12.37;7.67;;;;;;;33.54;34.85;97936.14;1683940;85;21068;-78
2021/07/19 11:06:39;;;;;;;13.78;9.40;;;;;;;34.19;34.00;97940.48;1684590;84;20989;-71
2021/07/19 11:09:07;;;;;;;14.50;9.15;;;;;;;31.84;36.80;97941.61;1685242;84;20987;-75
2021/07/19 11:11:40;;;;;;;10.80;8.38;;;;;;;30.72;38.35;97947.58;1684268;85;21176;-72
2021/07/19 11:14:09;;;;;;;12.23;8.03;;;;;;;30.01;40.03;97943.98;1714342;82;21138;-73
2021/07/19 11:16:49;;;;;;;15.28;8.50;;;;;;;28.58;41.94;97944.58;1725051;83;21506;-74
2021/07/19 11:19:19;;;;;;;16.50;8.70;;;;;;;30.21;40.11;97940.84;1689627;84;21356;-74
2021/07/19 11:21:45;;;;;;;12.93;8.13;;;;;;;31.11;39.27;97941.56;1660467;85;21054;-74
2021/07/19 11:24:15;;;;;;;9.08;7.60;;;;;;;30.11;40.14;97938.94;1726914;82;20865;-73